createdAt,value
2023-01-05T00:01:07.244Z,99622.88
2023-01-05T00:03:34.997Z,99628.03
2023-01-05T00:06:06.958Z,99628.19
2023-01-05T00:08:37.456Z,99632.16
2023-01-05T00:11:30.924Z,99633.78
2023-01-05T00:14:16.371Z,99637.94
2023-01-05T00:17:02.104Z,99639.81
2023-01-05T00:19:47.877Z,99639.00
2023-01-05T00:22:31.182Z,99621.97
2023-01-05T00:25:11.324Z,99628.47
2023-01-05T00:27:40.694Z,99624.69
2023-01-05T00:30:08.496Z,99629.97
2023-01-05T00:32:35.149Z,99645.75
2023-01-05T00:35:01.988Z,99642.19
2023-01-05T00:37:32.085Z,99626.72
2023-01-05T00:39:59.037Z,99625.66
2023-01-05T00:42:25.713Z,99623.91
2023-01-05T00:44:52.302Z,99612.25
2023-01-05T00:47:18.830Z,99606.28
2023-01-05T00:49:45.416Z,99600.78
2023-01-05T00:52:12.004Z,99608.91
2023-01-05T00:54:38.713Z,99593.03
2023-01-05T00:57:07.163Z,99603.94
2023-01-05T00:59:33.716Z,99602.25
2023-01-05T01:02:00.437Z,99588.09
2023-01-05T01:04:27.143Z,99589.41
2023-01-05T01:06:54.721Z,99587.91
2023-01-05T01:09:21.666Z,99586.78
2023-01-05T01:11:48.285Z,99582.44
2023-01-05T01:14:15.458Z,99584.78
2023-01-05T01:16:43.024Z,99573.50
2023-01-05T01:19:14.474Z,99569.94
2023-01-05T01:21:41.033Z,99568.34
2023-01-05T01:24:08.003Z,99566.66
2023-01-05T01:26:34.567Z,99554.91
2023-01-05T01:29:01.100Z,99554.97
2023-01-05T01:31:27.774Z,99559.75
2023-01-05T01:33:54.299Z,99551.09
2023-01-05T01:36:20.846Z,99547.69
2023-01-05T01:38:47.414Z,99543.59
2023-01-05T01:41:14.140Z,99538.81
2023-01-05T01:43:49.813Z,99533.19
2023-01-05T01:46:18.019Z,99541.22
2023-01-05T01:48:48.673Z,99538.38
2023-01-05T01:51:27.108Z,99541.81
2023-01-05T01:53:59.824Z,99541.13
2023-01-05T01:56:30.985Z,99542.28
2023-01-05T01:58:57.629Z,99547.75
2023-01-05T02:01:24.427Z,99538.38
2023-01-05T02:03:51.133Z,99529.59
2023-01-05T02:06:18.490Z,99546.09
2023-01-05T02:08:45.794Z,99552.34
2023-01-05T02:11:18.088Z,99542.00
2023-01-05T02:14:05.956Z,99526.69
2023-01-05T02:16:56.867Z,99524.75
2023-01-05T02:19:56.923Z,99524.94
2023-01-05T02:22:52.430Z,99532.13
2023-01-05T02:25:30.835Z,99515.72
2023-01-05T02:28:28.650Z,99535.00
2023-01-05T02:31:04.980Z,99521.84
2023-01-05T02:33:55.002Z,99510.13
2023-01-05T02:36:28.971Z,99512.94
2023-01-05T02:39:11.495Z,99506.56
2023-01-05T02:41:45.191Z,99517.91
2023-01-05T02:44:15.250Z,99509.75
2023-01-05T02:46:41.773Z,99496.53
2023-01-05T02:49:08.791Z,99497.41
2023-01-05T02:51:44.873Z,99509.06
2023-01-05T02:54:27.268Z,99506.31
2023-01-05T02:57:02.118Z,99493.16
2023-01-05T02:59:38.252Z,99481.84
2023-01-05T03:02:11.566Z,99483.56
2023-01-05T03:04:48.907Z,99480.06
2023-01-05T03:07:19.181Z,99494.47
2023-01-05T03:09:46.635Z,99486.91
2023-01-05T03:12:53.108Z,99498.25
2023-01-05T03:15:25.369Z,99494.03
2023-01-05T03:17:56.822Z,99491.06
2023-01-05T03:20:32.978Z,99502.78
2023-01-05T03:23:21.677Z,99498.09
2023-01-05T03:26:08.818Z,99489.41
2023-01-05T03:29:02.916Z,99479.13
2023-01-05T03:32:19.030Z,99473.84
2023-01-05T03:35:21.890Z,99467.59
2023-01-05T03:37:54.040Z,99471.72
2023-01-05T03:40:28.865Z,99468.19
2023-01-05T03:42:56.116Z,99473.88
2023-01-05T03:45:25.257Z,99480.41
2023-01-05T03:47:51.882Z,99456.75
2023-01-05T03:50:18.442Z,99431.59
2023-01-05T03:52:44.956Z,99438.69
2023-01-05T03:55:11.719Z,99422.59
2023-01-05T03:57:38.230Z,99422.19
2023-01-05T04:00:06.093Z,99418.63
2023-01-05T04:02:32.825Z,99408.09
2023-01-05T04:04:59.495Z,99399.31
2023-01-05T04:07:26.068Z,99399.22
2023-01-05T04:09:52.605Z,99400.28
2023-01-05T04:12:19.095Z,99389.44
2023-01-05T04:14:45.703Z,99396.13
2023-01-05T04:17:12.226Z,99403.44
2023-01-05T04:19:38.839Z,99402.19
2023-01-05T04:22:05.381Z,99408.66
2023-01-05T04:24:31.943Z,99398.53
2023-01-05T04:26:58.460Z,99394.44
2023-01-05T04:29:25.019Z,99385.31
2023-01-05T04:31:51.527Z,99388.34
2023-01-05T04:34:18.223Z,99375.06
2023-01-05T04:36:47.973Z,99377.78
2023-01-05T04:39:14.724Z,99378.38
2023-01-05T04:41:41.665Z,99377.59
2023-01-05T04:44:08.213Z,99359.88
2023-01-05T04:46:34.939Z,99374.59
2023-01-05T04:49:01.526Z,99375.22
2023-01-05T04:51:28.132Z,99376.81
2023-01-05T04:53:54.684Z,99386.75
2023-01-05T04:56:21.244Z,99369.63
2023-01-05T04:58:48.967Z,99371.22
2023-01-05T05:01:15.698Z,99355.63
2023-01-05T05:03:42.460Z,99357.88
2023-01-05T05:06:09.035Z,99357.88
2023-01-05T05:08:35.588Z,99352.38
2023-01-05T05:11:02.114Z,99343.06
2023-01-05T05:13:28.709Z,99349.13
2023-01-05T05:15:55.364Z,99358.16
2023-01-05T05:18:22.242Z,99351.88
2023-01-05T05:20:51.668Z,99359.84
2023-01-05T05:23:18.932Z,99341.28
2023-01-05T05:25:45.786Z,99330.59
2023-01-05T05:28:12.386Z,99332.97
2023-01-05T05:30:38.937Z,99328.53
2023-01-05T05:33:05.731Z,99338.09
2023-01-05T05:35:32.266Z,99340.44
2023-01-05T05:37:58.784Z,99346.47
2023-01-05T05:40:26.446Z,99344.53
2023-01-05T05:42:52.995Z,99352.06
2023-01-05T05:45:19.548Z,99331.16
2023-01-05T05:47:46.198Z,99342.25
2023-01-05T05:50:12.832Z,99331.06
2023-01-05T05:52:39.380Z,99334.38
2023-01-05T05:56:19.446Z,99337.19
2023-01-05T05:58:45.970Z,99325.41
2023-01-05T06:01:12.839Z,99331.72
2023-01-05T06:03:39.467Z,99326.16
2023-01-05T06:06:06.412Z,99334.19
2023-01-05T06:08:33.078Z,99322.44
2023-01-05T06:10:59.823Z,99310.31
2023-01-05T06:13:26.409Z,99311.69
2023-01-05T06:15:53.049Z,99310.34
2023-01-05T06:18:19.753Z,99298.88
2023-01-05T06:20:46.312Z,99313.06
2023-01-05T06:23:12.851Z,99313.53
2023-01-05T06:25:40.683Z,99319.19
2023-01-05T06:28:07.263Z,99316.41
2023-01-05T06:30:33.838Z,99309.06
2023-01-05T06:33:00.452Z,99314.09
2023-01-05T06:35:27.099Z,99313.69
2023-01-05T06:37:53.763Z,99310.16
2023-01-05T06:40:20.345Z,99312.91
2023-01-05T06:42:47.327Z,99308.13
2023-01-05T06:45:15.401Z,99309.78
2023-01-05T06:47:43.255Z,99320.88
2023-01-05T06:50:10.358Z,99326.72
2023-01-05T06:52:39.982Z,99324.94
2023-01-05T06:55:11.277Z,99311.22
2023-01-05T06:57:38.229Z,99324.84
2023-01-05T07:00:07.506Z,99308.47
2023-01-05T07:02:34.077Z,99327.59
2023-01-05T07:05:00.671Z,99339.00
2023-01-05T07:07:27.267Z,99331.94
2023-01-05T07:09:53.869Z,99336.38
2023-01-05T07:12:20.429Z,99351.38
2023-01-05T07:14:46.977Z,99348.09
2023-01-05T07:17:13.629Z,99355.63
2023-01-05T07:19:40.226Z,99361.56
2023-01-05T07:22:07.015Z,99358.81
2023-01-05T07:24:33.841Z,99366.97
2023-01-05T07:27:04.484Z,99374.63
2023-01-05T07:29:35.937Z,99369.38
2023-01-05T07:32:02.704Z,99367.53
2023-01-05T07:34:29.240Z,99364.63
2023-01-05T07:36:55.807Z,99362.78
2023-01-05T07:39:22.318Z,99360.78
2023-01-05T07:41:48.842Z,99383.81
2023-01-05T07:44:15.413Z,99373.25
2023-01-05T07:46:41.950Z,99374.84
2023-01-05T07:49:08.508Z,99386.75
2023-01-05T07:51:36.638Z,99382.38
2023-01-05T07:54:03.466Z,99382.38
2023-01-05T07:56:30.126Z,99373.78
2023-01-05T07:58:56.654Z,99366.53
2023-01-05T08:01:23.287Z,99350.56
2023-01-05T08:03:50.196Z,99335.88
2023-01-05T08:06:19.117Z,99326.22
2023-01-05T08:08:46.298Z,99321.75
2023-01-05T08:11:18.310Z,99329.09
2023-01-05T08:14:00.575Z,99334.81
2023-01-05T08:16:32.091Z,99322.97
2023-01-05T08:18:59.968Z,99325.00
2023-01-05T08:21:26.568Z,99332.16
2023-01-05T08:23:59.233Z,99319.97
2023-01-05T08:26:26.092Z,99315.91
2023-01-05T08:28:53.385Z,99319.84
2023-01-05T08:31:24.101Z,99320.13
2023-01-05T08:33:50.826Z,99311.28
2023-01-05T08:36:22.255Z,99310.25
2023-01-05T08:38:53.198Z,99313.63
2023-01-05T08:41:32.008Z,99316.44
2023-01-05T08:44:01.048Z,99315.28
2023-01-05T08:46:30.424Z,99324.03
2023-01-05T08:48:59.991Z,99321.75
2023-01-05T08:51:27.558Z,99312.75
2023-01-05T08:53:54.492Z,99320.38
2023-01-05T08:56:21.964Z,99322.34
2023-01-05T08:58:48.535Z,99327.69
2023-01-05T09:01:17.943Z,99323.72
2023-01-05T09:03:44.887Z,99334.34
2023-01-05T09:06:12.801Z,99328.19
2023-01-05T09:08:41.796Z,99329.88
2023-01-05T09:11:17.828Z,99334.75
2023-01-05T09:13:49.549Z,99333.28
2023-01-05T09:16:35.552Z,99342.47
2023-01-05T09:19:06.730Z,99344.91
2023-01-05T09:21:33.412Z,99331.09
2023-01-05T09:23:59.979Z,99324.78
2023-01-05T09:26:26.676Z,99334.69
2023-01-05T09:28:53.348Z,99339.09
2023-01-05T09:31:22.321Z,99331.19
2023-01-05T09:33:49.158Z,99311.38
2023-01-05T09:36:17.207Z,99320.09
2023-01-05T09:38:48.004Z,99317.31
2023-01-05T09:41:26.176Z,99328.81
2023-01-05T09:43:56.636Z,99315.72
2023-01-05T09:46:30.205Z,99318.47
2023-01-05T09:51:34.489Z,99324.03
2023-01-05T09:54:02.322Z,99336.72
2023-01-05T09:59:58.728Z,99315.75
2023-01-05T10:02:33.893Z,99330.44
2023-01-05T10:05:02.439Z,99313.00
2023-01-05T10:07:36.328Z,99320.56
2023-01-05T10:10:08.422Z,99323.72
2023-01-05T10:13:03.181Z,99309.06
2023-01-05T10:15:36.507Z,99322.53
2023-01-05T10:18:10.998Z,99317.75
2023-01-05T10:20:45.340Z,99328.84
2023-01-05T10:23:40.583Z,99315.41
2023-01-05T10:26:17.726Z,99300.31
2023-01-05T10:29:07.211Z,99310.66
2023-01-05T10:31:47.358Z,99306.28
2023-01-05T10:34:36.746Z,99324.91
2023-01-05T10:37:09.860Z,99327.28
2023-01-05T10:39:56.293Z,99321.34
2023-01-05T10:42:41.023Z,99328.09
2023-01-05T10:45:11.603Z,99319.78
2023-01-05T10:47:40.031Z,99348.66
2023-01-05T10:50:30.378Z,99331.25
2023-01-05T10:52:58.431Z,99328.84
2023-01-05T10:55:27.557Z,99353.34
2023-01-05T10:57:54.299Z,99333.50
2023-01-05T11:00:37.787Z,99345.34
2023-01-05T11:03:07.633Z,99343.38
2023-01-05T11:05:39.589Z,99321.94
2023-01-05T11:08:14.586Z,99342.91
2023-01-05T11:10:50.367Z,99352.41
2023-01-05T11:13:25.843Z,99333.81
2023-01-05T11:15:59.856Z,99346.41
2023-01-05T11:18:36.180Z,99354.72
2023-01-05T11:21:15.604Z,99367.78
2023-01-05T11:23:57.823Z,99365.00
2023-01-05T11:26:35.979Z,99350.84
2023-01-05T11:29:15.172Z,99370.63
2023-01-05T11:31:43.127Z,99349.63
2023-01-05T11:34:16.099Z,99353.84
2023-01-05T11:36:43.937Z,99350.25
2023-01-05T11:39:31.737Z,99347.53
2023-01-05T11:42:18.863Z,99354.25
2023-01-05T11:45:00.148Z,99341.94
2023-01-05T11:47:33.467Z,99329.28
2023-01-05T11:50:08.795Z,99343.16
2023-01-05T11:52:41.715Z,99332.03
2023-01-05T11:55:20.591Z,99343.44
2023-01-05T11:57:52.778Z,99331.13
2023-01-05T12:00:57.894Z,99334.25
2023-01-05T12:03:24.597Z,99325.94
2023-01-05T12:05:55.161Z,99315.25
2023-01-05T12:08:35.819Z,99308.19
2023-01-05T12:11:11.055Z,99309.34
2023-01-05T12:14:08.932Z,99329.47
2023-01-05T12:16:47.009Z,99314.00
2023-01-05T12:19:32.541Z,99306.91
2023-01-05T12:22:07.806Z,99310.91
2023-01-05T12:24:34.317Z,99338.59
2023-01-05T12:27:26.876Z,99297.47
2023-01-05T12:32:48.124Z,99304.16
2023-01-05T12:34:13.419Z,99317.22
2023-01-05T12:36:49.450Z,99324.66
2023-01-05T12:39:52.592Z,99335.28
2023-01-05T12:42:27.121Z,99334.44
2023-01-05T12:45:26.694Z,99336.41
2023-01-05T12:48:08.166Z,99361.72
2023-01-05T12:50:53.522Z,99350.19
2023-01-05T12:53:33.330Z,99362.06
2023-01-05T12:56:06.934Z,99362.06
2023-01-05T12:58:37.019Z,99347.03
2023-01-05T13:01:07.182Z,99362.03
2023-01-05T13:03:41.722Z,99350.13
2023-01-05T13:06:21.899Z,99339.03
2023-01-05T13:09:29.589Z,99343.75
2023-01-05T13:12:02.010Z,99346.06
2023-01-05T13:14:33.847Z,99357.06
2023-01-05T13:17:19.639Z,99368.03
2023-01-05T13:19:49.043Z,99362.91
2023-01-05T13:22:29.339Z,99371.59
2023-01-05T13:25:19.498Z,99375.84
2023-01-05T13:27:46.135Z,99377.78
2023-01-05T13:30:23.229Z,99371.03
2023-01-05T13:33:17.346Z,99386.00
2023-01-05T13:35:53.695Z,99387.09
2023-01-05T13:38:53.995Z,99385.41
2023-01-05T13:41:38.445Z,99394.44
2023-01-05T13:44:24.993Z,99400.72
2023-01-05T13:47:23.771Z,99415.31
2023-01-05T13:50:26.648Z,99425.50
2023-01-05T13:53:14.681Z,99429.44
2023-01-05T13:55:49.135Z,99415.91
2023-01-05T13:59:15.867Z,99430.53
2023-01-05T14:01:51.430Z,99428.47
2023-01-05T14:04:20.944Z,99437.53
2023-01-05T14:06:50.268Z,99441.81
2023-01-05T14:09:26.118Z,99440.59
2023-01-05T14:12:07.903Z,99445.25
2023-01-05T14:15:22.588Z,99449.56
2023-01-05T14:17:52.173Z,99445.94
2023-01-05T14:20:37.283Z,99443.13
2023-01-05T14:23:23.885Z,99458.47
2023-01-05T14:26:01.241Z,99458.78
2023-01-05T14:28:30.458Z,99465.50
2023-01-05T14:34:03.445Z,99483.13
2023-01-05T14:36:45.443Z,99472.38
2023-01-05T14:39:17.776Z,99479.41
2023-01-05T14:41:55.103Z,99477.63
2023-01-05T14:44:32.444Z,99472.28
2023-01-05T14:47:00.391Z,99471.59
2023-01-05T14:49:35.606Z,99465.88
2023-01-05T14:52:04.688Z,99469.97
2023-01-05T14:54:43.372Z,99476.50
2023-01-05T14:57:25.240Z,99478.63
2023-01-05T15:00:15.930Z,99482.78
2023-01-05T15:03:12.541Z,99481.78
2023-01-05T15:05:52.970Z,99489.81
2023-01-05T15:08:35.449Z,99500.97
2023-01-05T15:11:11.153Z,99494.13
2023-01-05T15:14:37.574Z,99498.25
2023-01-05T15:17:22.619Z,99511.50
2023-01-05T15:20:10.958Z,99503.91
2023-01-05T15:22:56.065Z,99519.78
2023-01-05T15:25:58.014Z,99515.78
2023-01-05T15:28:39.562Z,99508.19
2023-01-05T15:31:38.781Z,99525.41
2023-01-05T15:34:34.104Z,99511.91
2023-01-05T15:37:15.682Z,99512.72
2023-01-05T15:39:51.201Z,99511.75
2023-01-05T15:42:40.760Z,99501.66
2023-01-05T15:45:17.285Z,99508.56
2023-01-05T15:47:45.026Z,99514.16
2023-01-05T15:50:24.468Z,99508.03
2023-01-05T15:52:55.421Z,99495.41
2023-01-05T15:55:22.958Z,99508.72
2023-01-05T15:57:58.493Z,99501.53
2023-01-05T16:00:29.283Z,99514.44
2023-01-05T16:02:56.077Z,99504.91
2023-01-05T16:05:28.521Z,99515.53
2023-01-05T16:08:03.485Z,99505.63
2023-01-05T16:10:37.468Z,99505.16
2023-01-05T16:13:14.543Z,99516.44
2023-01-05T16:15:43.174Z,99499.56
2023-01-05T16:18:15.670Z,99501.97
2023-01-05T16:20:46.940Z,99502.84
2023-01-05T16:23:49.300Z,99502.31
2023-01-05T16:26:18.091Z,99504.72
2023-01-05T16:28:45.302Z,99512.72
2023-01-05T16:31:24.965Z,99510.75
2023-01-05T16:34:02.813Z,99516.72
2023-01-05T16:36:29.620Z,99526.28
2023-01-05T16:39:13.621Z,99519.97
2023-01-05T16:42:00.156Z,99532.97
2023-01-05T16:44:30.703Z,99522.38
2023-01-05T16:47:09.243Z,99531.78
2023-01-05T16:49:49.891Z,99524.06
2023-01-05T16:52:27.366Z,99509.94
2023-01-05T16:55:30.112Z,99517.25
2023-01-05T16:57:58.385Z,99521.19
2023-01-05T17:00:31.551Z,99519.38
2023-01-05T17:02:59.376Z,99517.06
2023-01-05T17:05:32.676Z,99523.19
2023-01-05T17:08:07.731Z,99534.28
2023-01-05T17:10:34.370Z,99521.84
2023-01-05T17:13:10.331Z,99532.84
2023-01-05T17:15:37.044Z,99525.25
2023-01-05T17:18:16.924Z,99532.88
2023-01-05T17:20:44.587Z,99540.44
2023-01-05T17:23:24.774Z,99548.69
2023-01-05T17:28:22.346Z,99567.00
2023-01-05T17:30:49.102Z,99567.81
2023-01-05T17:33:15.708Z,99574.94
2023-01-05T17:35:43.037Z,99583.34
2023-01-05T17:38:11.784Z,99586.53
2023-01-05T17:40:39.064Z,99597.00
2023-01-05T17:43:06.115Z,99605.75
2023-01-05T17:45:33.815Z,99620.91
2023-01-05T17:48:00.660Z,99615.56
2023-01-05T17:53:01.075Z,99623.75
2023-01-05T17:55:29.391Z,99637.31
2023-01-05T17:57:57.742Z,99638.25
2023-01-05T18:00:26.230Z,99632.44
2023-01-05T18:02:53.971Z,99627.81
2023-01-05T18:05:21.899Z,99634.94
2023-01-05T18:07:48.753Z,99620.63
2023-01-05T18:10:19.870Z,99619.94
2023-01-05T18:12:46.485Z,99620.91
2023-01-05T18:15:14.346Z,99640.66
2023-01-05T18:17:42.392Z,99624.00
2023-01-05T18:20:11.503Z,99620.25
2023-01-05T18:22:38.443Z,99642.34
2023-01-05T18:27:35.571Z,99637.63
2023-01-05T18:30:04.174Z,99653.94
2023-01-05T18:35:05.722Z,99633.53
2023-01-05T18:37:35.894Z,99637.31
2023-01-05T18:40:02.627Z,99637.50
2023-01-05T18:42:29.248Z,99648.28
2023-01-05T18:44:55.818Z,99658.03
2023-01-05T18:47:22.416Z,99667.81
2023-01-05T18:49:48.943Z,99664.78
2023-01-05T18:52:15.495Z,99660.56
2023-01-05T18:54:42.185Z,99683.25
2023-01-05T18:57:08.779Z,99675.72
2023-01-05T18:59:35.489Z,99677.75
2023-01-05T19:02:02.125Z,99680.84
2023-01-05T19:04:28.806Z,99677.75
2023-01-05T19:06:56.047Z,99681.16
2023-01-05T19:09:22.756Z,99681.84
2023-01-05T19:11:49.363Z,99687.84
2023-01-05T19:14:16.397Z,99698.63
2023-01-05T19:16:42.969Z,99690.84
2023-01-05T19:19:12.334Z,99705.31
2023-01-05T19:21:41.159Z,99703.44
2023-01-05T19:24:15.113Z,99707.81
2023-01-05T19:26:41.747Z,99705.06
2023-01-05T19:29:10.669Z,99697.63
2023-01-05T19:31:37.996Z,99706.22
2023-01-05T19:34:05.775Z,99699.94
2023-01-05T19:36:34.838Z,99702.44
2023-01-05T19:39:13.628Z,99705.84
2023-01-05T19:41:41.918Z,99718.44
2023-01-05T19:44:13.230Z,99713.16
2023-01-05T19:46:40.325Z,99713.28
2023-01-05T19:49:07.075Z,99708.47
2023-01-05T19:51:33.919Z,99713.97
2023-01-05T19:54:02.959Z,99706.84
2023-01-05T19:56:32.211Z,99723.94
2023-01-05T19:59:05.718Z,99730.47
2023-01-05T20:01:34.913Z,99721.06
2023-01-05T20:04:02.280Z,99730.81
2023-01-05T20:06:37.982Z,99741.81
2023-01-05T20:09:09.361Z,99731.16
2023-01-05T20:11:45.061Z,99739.41
2023-01-05T20:14:24.987Z,99743.06
2023-01-05T20:16:56.992Z,99739.97
2023-01-05T20:19:28.044Z,99747.31
2023-01-05T20:21:56.443Z,99757.16
2023-01-05T20:24:25.738Z,99760.25
2023-01-05T20:26:54.795Z,99776.97
2023-01-05T20:29:22.953Z,99762.41
2023-01-05T20:31:56.096Z,99775.34
2023-01-05T20:34:25.331Z,99776.84
2023-01-05T20:36:52.009Z,99775.16
2023-01-05T20:39:22.342Z,99772.06
2023-01-05T20:41:51.181Z,99754.63
2023-01-05T20:44:23.886Z,99789.81
2023-01-05T20:46:53.804Z,99768.63
2023-01-05T20:49:21.910Z,99765.44
2023-01-05T20:51:49.144Z,99790.16
2023-01-05T20:54:15.883Z,99781.69
2023-01-05T20:56:43.893Z,99776.06
2023-01-05T20:59:30.652Z,99778.16
2023-01-05T21:01:59.227Z,99780.66
2023-01-05T21:04:27.399Z,99777.69
2023-01-05T21:06:54.718Z,99770.25
2023-01-05T21:09:25.164Z,99786.28
2023-01-05T21:11:51.706Z,99777.81
2023-01-05T21:14:19.689Z,99778.63
2023-01-05T21:16:48.847Z,99805.66
2023-01-05T21:19:23.108Z,99791.91
2023-01-05T21:21:52.990Z,99788.59
2023-01-05T21:24:20.143Z,99789.84
2023-01-05T21:26:46.843Z,99792.72
2023-01-05T21:29:16.057Z,99793.75
2023-01-05T21:31:43.297Z,99793.75
2023-01-05T21:34:11.688Z,99800.16
2023-01-05T21:36:41.388Z,99804.72
2023-01-05T21:39:09.220Z,99817.31
2023-01-05T21:41:55.828Z,99809.41
2023-01-05T21:44:23.182Z,99832.09
2023-01-05T21:46:50.542Z,99819.50
2023-01-05T21:49:18.103Z,99822.81
2023-01-05T21:52:03.552Z,99830.84
2023-01-05T21:54:49.097Z,99826.16
2023-01-05T21:57:15.980Z,99836.09
2023-01-05T21:59:43.400Z,99833.34
2023-01-05T22:02:10.784Z,99826.16
2023-01-05T22:04:37.318Z,99837.38
2023-01-05T22:07:07.197Z,99842.88
2023-01-05T22:09:37.491Z,99829.00
2023-01-05T22:12:08.645Z,99836.78
2023-01-05T22:14:38.737Z,99825.78
2023-01-05T22:17:07.390Z,99838.41
2023-01-05T22:19:34.322Z,99850.97
2023-01-05T22:22:01.005Z,99820.75
2023-01-05T22:24:27.572Z,99834.72
2023-01-05T22:26:54.095Z,99820.06
2023-01-05T22:29:20.806Z,99818.47
2023-01-05T22:31:47.601Z,99834.84
2023-01-05T22:34:14.255Z,99832.66
2023-01-05T22:36:40.819Z,99845.59
2023-01-05T22:39:07.367Z,99836.69
2023-01-05T22:41:35.347Z,99840.25
2023-01-05T22:44:02.647Z,99843.66
2023-01-05T22:46:30.661Z,99835.41
2023-01-05T22:48:58.759Z,99844.03
2023-01-05T22:51:36.988Z,99837.25
2023-01-05T22:54:05.021Z,99844.13
2023-01-05T22:56:33.220Z,99840.56
2023-01-05T22:59:00.860Z,99850.44
2023-01-05T23:01:29.008Z,99851.56
2023-01-05T23:03:57.948Z,99858.53
2023-01-05T23:06:25.692Z,99854.66
2023-01-05T23:08:53.651Z,99845.97
2023-01-05T23:11:23.114Z,99852.72
2023-01-05T23:13:51.112Z,99853.63
2023-01-05T23:16:18.215Z,99848.00
2023-01-05T23:18:45.356Z,99849.41
2023-01-05T23:21:14.239Z,99854.19
2023-01-05T23:23:41.066Z,99845.25
2023-01-05T23:26:09.254Z,99846.88
2023-01-05T23:28:35.868Z,99852.38
2023-01-05T23:31:02.644Z,99834.94
2023-01-05T23:33:31.992Z,99839.41
2023-01-05T23:35:58.665Z,99830.69
2023-01-05T23:38:26.641Z,99835.28
2023-01-05T23:40:55.136Z,99841.59
2023-01-05T23:43:24.000Z,99839.75
2023-01-05T23:45:52.094Z,99835.59
2023-01-05T23:48:18.901Z,99833.06
2023-01-05T23:50:48.105Z,99836.84
2023-01-05T23:53:15.191Z,99840.38
2023-01-05T23:55:42.213Z,99833.06
2023-01-05T23:58:09.726Z,99837.06
